createdAt,value
2023-03-16T00:00:08.514Z,0.00
2023-03-16T00:01:08.526Z,0.00
2023-03-16T00:02:07.855Z,0.00
2023-03-16T00:03:08.536Z,0.00
2023-03-16T00:04:07.822Z,0.00
2023-03-16T00:05:08.464Z,0.00
2023-03-16T00:06:08.453Z,0.00
2023-03-16T00:07:08.463Z,0.00
2023-03-16T00:08:08.435Z,0.00
2023-03-16T00:09:07.785Z,0.00
2023-03-16T00:10:08.415Z,0.00
2023-03-16T00:11:08.399Z,0.00
2023-03-16T00:12:08.393Z,0.00
2023-03-16T00:13:08.387Z,0.00
2023-03-16T00:14:08.357Z,0.00
2023-03-16T00:15:08.368Z,0.00
2023-03-16T00:16:08.366Z,0.00
2023-03-16T00:17:07.655Z,0.00
2023-03-16T00:18:08.598Z,0.00
2023-03-16T00:19:08.306Z,0.00
2023-03-16T00:20:08.321Z,0.00
2023-03-16T00:21:08.561Z,0.00
2023-03-16T00:22:08.556Z,0.00
2023-03-16T00:23:08.526Z,0.00
2023-03-16T00:24:08.266Z,0.00
2023-03-16T00:25:08.538Z,0.00
2023-03-16T00:26:08.532Z,0.00
2023-03-16T00:27:08.987Z,0.00
2023-03-16T00:28:08.507Z,0.00
2023-03-16T00:29:08.516Z,0.00
2023-03-16T00:30:08.475Z,0.00
2023-03-16T00:31:08.210Z,0.00
2023-03-16T00:32:08.434Z,0.00
2023-03-16T00:33:08.574Z,0.00
2023-03-16T00:34:08.434Z,0.00
2023-03-16T00:35:09.851Z,0.00
2023-03-16T00:36:08.265Z,0.00
2023-03-16T00:37:08.163Z,0.00
2023-03-16T00:38:08.390Z,0.00
2023-03-16T00:39:08.393Z,0.00
2023-03-16T00:40:08.096Z,0.00
2023-03-16T00:41:08.345Z,0.00
2023-03-16T00:42:08.075Z,0.00
2023-03-16T00:43:08.342Z,0.00
2023-03-16T00:44:08.042Z,0.00
2023-03-16T00:45:08.313Z,0.00
2023-03-16T00:46:08.110Z,0.00
2023-03-16T00:47:08.303Z,0.00
2023-03-16T00:48:08.013Z,0.00
2023-03-16T00:49:08.272Z,0.00
2023-03-16T00:50:08.232Z,0.00
2023-03-16T00:51:07.988Z,0.00
2023-03-16T00:52:08.232Z,0.00
2023-03-16T00:53:07.954Z,0.00
2023-03-16T00:54:08.235Z,0.00
2023-03-16T00:55:07.933Z,0.00
2023-03-16T00:56:07.937Z,0.00
2023-03-16T00:57:08.162Z,0.00
2023-03-16T00:58:08.168Z,0.00
2023-03-16T00:59:08.145Z,0.00
2023-03-16T01:00:07.865Z,0.00
2023-03-16T01:01:07.981Z,0.00
2023-03-16T01:02:07.203Z,0.00
2023-03-16T01:03:07.927Z,0.00
2023-03-16T01:04:07.166Z,0.00
2023-03-16T01:05:08.135Z,0.00
2023-03-16T01:06:07.831Z,0.00
2023-03-16T01:07:07.804Z,0.00
2023-03-16T01:08:07.805Z,0.00
2023-03-16T01:09:08.039Z,0.00
2023-03-16T01:10:08.068Z,0.00
2023-03-16T01:11:08.028Z,0.00
2023-03-16T01:12:07.777Z,0.00
2023-03-16T01:13:07.751Z,0.00
2023-03-16T01:14:07.997Z,0.00
2023-03-16T01:15:07.997Z,0.00
2023-03-16T01:16:07.721Z,0.00
2023-03-16T01:17:07.747Z,0.00
2023-03-16T01:18:07.949Z,0.00
2023-03-16T01:19:07.937Z,0.00
2023-03-16T01:20:07.654Z,0.00
2023-03-16T01:21:07.939Z,0.00
2023-03-16T01:22:07.655Z,0.00
2023-03-16T01:23:07.913Z,0.00
2023-03-16T01:24:07.628Z,0.00
2023-03-16T01:25:06.967Z,0.00
2023-03-16T01:26:07.618Z,0.00
2023-03-16T01:27:07.620Z,0.00
2023-03-16T01:28:07.589Z,0.00
2023-03-16T01:29:07.107Z,0.00
2023-03-16T01:30:07.548Z,0.00
2023-03-16T01:31:07.604Z,0.00
2023-03-16T01:32:07.809Z,0.00
2023-03-16T01:33:07.840Z,0.00
2023-03-16T01:34:07.534Z,0.00
2023-03-16T01:35:07.828Z,0.00
2023-03-16T01:36:07.552Z,0.00
2023-03-16T01:37:07.753Z,0.00
2023-03-16T01:38:07.490Z,0.00
2023-03-16T01:39:07.470Z,0.00
2023-03-16T01:40:06.863Z,0.00
2023-03-16T01:41:06.760Z,0.00
2023-03-16T01:42:07.439Z,0.00
2023-03-16T01:43:07.451Z,0.00
2023-03-16T01:44:07.425Z,0.00
2023-03-16T01:45:07.690Z,0.00
2023-03-16T01:46:07.491Z,0.00
2023-03-16T01:47:07.394Z,0.00
2023-03-16T01:48:07.390Z,0.00
2023-03-16T01:49:07.373Z,0.00
2023-03-16T01:50:07.341Z,0.00
2023-03-16T01:51:07.604Z,0.00
2023-03-16T01:52:07.346Z,0.00
2023-03-16T01:53:07.582Z,0.00
2023-03-16T01:54:07.576Z,0.00
2023-03-16T01:55:07.573Z,0.00
2023-03-16T01:56:07.542Z,0.00
2023-03-16T01:57:06.596Z,0.00
2023-03-16T01:58:07.536Z,0.00
2023-03-16T01:59:07.529Z,0.00
2023-03-16T02:00:07.245Z,0.00
2023-03-16T02:01:07.267Z,0.00
2023-03-16T02:02:06.546Z,0.00
2023-03-16T02:03:07.235Z,0.00
2023-03-16T02:04:06.583Z,0.00
2023-03-16T02:05:07.214Z,0.00
2023-03-16T02:06:07.193Z,0.00
2023-03-16T02:07:06.528Z,0.00
2023-03-16T02:08:06.485Z,0.00
2023-03-16T02:09:07.163Z,0.00
2023-03-16T02:10:07.144Z,0.00
2023-03-16T02:11:06.480Z,0.00
2023-03-16T02:12:07.137Z,0.00
2023-03-16T02:13:07.125Z,0.00
2023-03-16T02:14:07.118Z,0.00
2023-03-16T02:15:07.112Z,0.00
2023-03-16T02:16:07.159Z,0.00
2023-03-16T02:17:06.396Z,0.00
2023-03-16T02:18:06.405Z,0.00
2023-03-16T02:19:07.071Z,0.00
2023-03-16T02:20:07.056Z,0.00
2023-03-16T02:21:07.026Z,0.00
2023-03-16T02:22:07.032Z,0.00
2023-03-16T02:23:06.339Z,0.00
2023-03-16T02:24:06.326Z,0.00
2023-03-16T02:25:06.318Z,0.00
2023-03-16T02:26:06.325Z,0.00
2023-03-16T02:27:06.980Z,0.00
2023-03-16T02:28:06.976Z,0.00
2023-03-16T02:29:06.278Z,0.00
2023-03-16T02:30:06.950Z,0.00
2023-03-16T02:31:07.010Z,0.00
2023-03-16T02:32:06.937Z,0.00
2023-03-16T02:33:06.946Z,0.00
2023-03-16T02:34:06.905Z,0.00
2023-03-16T02:35:06.897Z,0.00
2023-03-16T02:36:06.265Z,0.00
2023-03-16T02:37:06.885Z,0.00
2023-03-16T02:38:06.860Z,0.00
2023-03-16T02:39:06.167Z,0.00
2023-03-16T02:40:06.847Z,0.00
2023-03-16T02:41:06.809Z,0.00
2023-03-16T02:42:06.823Z,0.00
2023-03-16T02:43:06.834Z,0.00
2023-03-16T02:44:06.802Z,0.00
2023-03-16T02:45:06.790Z,0.00
2023-03-16T02:46:06.186Z,0.00
2023-03-16T02:47:06.770Z,0.00
2023-03-16T02:48:06.070Z,0.00
2023-03-16T02:49:06.062Z,0.00
2023-03-16T02:50:06.052Z,0.00
2023-03-16T02:51:06.711Z,0.00
2023-03-16T02:52:06.728Z,0.00
2023-03-16T02:53:06.710Z,0.00
2023-03-16T02:54:06.032Z,0.00
2023-03-16T02:55:06.677Z,0.00
2023-03-16T02:56:06.651Z,0.00
2023-03-16T02:57:06.663Z,0.00
2023-03-16T02:58:06.667Z,0.00
2023-03-16T02:59:05.970Z,0.00
2023-03-16T03:00:06.635Z,0.00
2023-03-16T03:01:06.607Z,0.00
2023-03-16T03:02:06.646Z,0.00
2023-03-16T03:03:06.636Z,0.00
2023-03-16T03:04:06.594Z,0.00
2023-03-16T03:05:05.920Z,0.00
2023-03-16T03:06:05.903Z,0.00
2023-03-16T03:07:06.551Z,0.00
2023-03-16T03:08:05.906Z,0.00
2023-03-16T03:09:05.862Z,0.00
2023-03-16T03:10:05.835Z,0.00
2023-03-16T03:11:06.794Z,0.00
2023-03-16T03:12:06.503Z,0.00
2023-03-16T03:13:06.494Z,0.00
2023-03-16T03:14:06.527Z,0.00
2023-03-16T03:15:05.782Z,0.00
2023-03-16T03:16:07.742Z,0.00
2023-03-16T03:17:06.452Z,0.00
2023-03-16T03:18:06.456Z,0.00
2023-03-16T03:19:06.443Z,0.00
2023-03-16T03:20:06.434Z,0.00
2023-03-16T03:21:05.749Z,0.00
2023-03-16T03:22:06.506Z,0.00
2023-03-16T03:23:06.394Z,0.00
2023-03-16T03:24:05.771Z,0.00
2023-03-16T03:25:06.386Z,0.00
2023-03-16T03:26:06.346Z,0.00
2023-03-16T03:27:05.704Z,0.00
2023-03-16T03:28:06.350Z,0.00
2023-03-16T03:29:05.662Z,0.00
2023-03-16T03:30:06.323Z,0.00
2023-03-16T03:31:06.300Z,0.00
2023-03-16T03:32:06.296Z,0.00
2023-03-16T03:33:06.411Z,0.00
2023-03-16T03:34:05.615Z,0.00
2023-03-16T03:35:06.270Z,0.00
2023-03-16T03:36:05.697Z,0.00
2023-03-16T03:37:06.247Z,0.00
2023-03-16T03:38:06.238Z,0.00
2023-03-16T03:39:06.226Z,0.00
2023-03-16T03:40:06.511Z,0.00
2023-03-16T03:41:06.187Z,0.00
2023-03-16T03:42:06.194Z,0.00
2023-03-16T03:43:06.198Z,0.00
2023-03-16T03:44:06.180Z,0.00
2023-03-16T03:45:06.173Z,0.00
2023-03-16T03:46:06.231Z,0.00
2023-03-16T03:47:05.570Z,0.00
2023-03-16T03:48:05.452Z,0.00
2023-03-16T03:49:06.894Z,0.00
2023-03-16T03:50:06.111Z,0.00
2023-03-16T03:51:06.089Z,0.00
2023-03-16T03:52:05.427Z,0.00
2023-03-16T03:53:06.079Z,0.00
2023-03-16T03:54:06.247Z,0.00
2023-03-16T03:55:06.085Z,0.00
2023-03-16T03:56:05.383Z,0.00
2023-03-16T03:57:06.077Z,0.00
2023-03-16T03:58:06.030Z,0.00
2023-03-16T03:59:06.017Z,0.00
2023-03-16T04:00:06.008Z,0.00
2023-03-16T04:01:05.359Z,0.00
2023-03-16T04:02:05.387Z,0.00
2023-03-16T04:03:05.439Z,0.00
2023-03-16T04:04:05.958Z,0.00
2023-03-16T04:05:05.983Z,0.00
2023-03-16T04:06:07.238Z,0.00
2023-03-16T04:07:05.953Z,0.00
2023-03-16T04:08:05.920Z,0.00
2023-03-16T04:09:05.236Z,0.00
2023-03-16T04:10:05.237Z,0.00
2023-03-16T04:11:05.899Z,0.00
2023-03-16T04:12:05.900Z,0.00
2023-03-16T04:13:05.890Z,0.00
2023-03-16T04:14:05.859Z,0.00
2023-03-16T04:15:05.207Z,0.00
2023-03-16T04:16:06.106Z,0.00
2023-03-16T04:17:05.839Z,0.00
2023-03-16T04:18:06.059Z,0.00
2023-03-16T04:19:05.869Z,0.00
2023-03-16T04:20:05.828Z,0.00
2023-03-16T04:21:05.211Z,0.00
2023-03-16T04:22:06.104Z,0.00
2023-03-16T04:23:05.660Z,0.00
2023-03-16T04:24:07.116Z,0.00
2023-03-16T04:25:05.799Z,0.00
2023-03-16T04:26:05.723Z,0.00
2023-03-16T04:27:06.513Z,0.00
2023-03-16T04:28:05.052Z,0.00
2023-03-16T04:29:05.710Z,0.00
2023-03-16T04:30:05.694Z,0.00
2023-03-16T04:31:05.056Z,0.00
2023-03-16T04:32:05.682Z,0.00
2023-03-16T04:33:05.754Z,0.00
2023-03-16T04:34:05.041Z,0.00
2023-03-16T04:35:04.953Z,0.00
2023-03-16T04:36:05.665Z,0.00
2023-03-16T04:37:05.623Z,0.00
2023-03-16T04:38:05.615Z,0.00
2023-03-16T04:39:05.616Z,0.00
2023-03-16T04:40:04.924Z,0.00
2023-03-16T04:41:04.940Z,0.00
2023-03-16T04:42:05.572Z,0.00
2023-03-16T04:43:05.591Z,0.00
2023-03-16T04:44:05.579Z,0.00
2023-03-16T04:45:04.865Z,0.00
2023-03-16T04:46:04.914Z,0.00
2023-03-16T04:47:05.773Z,0.00
2023-03-16T04:48:05.505Z,0.00
2023-03-16T04:49:05.501Z,0.00
2023-03-16T04:50:05.502Z,0.00
2023-03-16T04:51:05.455Z,0.00
2023-03-16T04:52:05.719Z,0.00
2023-03-16T04:53:04.798Z,0.00
2023-03-16T04:54:05.448Z,0.00
2023-03-16T04:55:04.767Z,0.00
2023-03-16T04:56:05.711Z,0.00
2023-03-16T04:57:04.717Z,0.00
2023-03-16T04:58:04.717Z,0.00
2023-03-16T04:59:05.396Z,0.00
2023-03-16T05:00:05.388Z,0.00
2023-03-16T05:01:05.379Z,0.00
2023-03-16T05:02:06.630Z,0.00
2023-03-16T05:03:04.683Z,0.00
2023-03-16T05:04:05.618Z,0.00
2023-03-16T05:05:05.332Z,0.00
2023-03-16T05:06:04.683Z,0.00
2023-03-16T05:07:05.307Z,0.00
2023-03-16T05:08:06.537Z,0.00
2023-03-16T05:09:05.291Z,0.00
2023-03-16T05:10:05.282Z,0.00
2023-03-16T05:11:04.609Z,0.00
2023-03-16T05:12:05.257Z,0.00
2023-03-16T05:13:04.568Z,0.00
2023-03-16T05:14:05.241Z,0.00
2023-03-16T05:15:05.234Z,0.00
2023-03-16T05:16:05.272Z,0.00
2023-03-16T05:17:05.199Z,0.00
2023-03-16T05:18:05.201Z,0.00
2023-03-16T05:19:05.180Z,0.00
2023-03-16T05:20:05.212Z,0.00
2023-03-16T05:21:04.505Z,0.00
2023-03-16T05:22:04.474Z,0.00
2023-03-16T05:23:04.500Z,0.00
2023-03-16T05:24:05.140Z,0.00
2023-03-16T05:25:05.149Z,0.00
2023-03-16T05:26:05.129Z,0.00
2023-03-16T05:27:05.140Z,0.00
2023-03-16T05:28:05.094Z,0.00
2023-03-16T05:29:05.077Z,0.00
2023-03-16T05:30:06.322Z,0.00
2023-03-16T05:31:05.117Z,0.00
2023-03-16T05:32:05.032Z,0.00
2023-03-16T05:33:05.281Z,0.00
2023-03-16T05:34:05.281Z,0.00
2023-03-16T05:35:05.029Z,0.00
2023-03-16T05:36:04.345Z,0.00
2023-03-16T05:37:04.972Z,5.62
2023-03-16T05:38:04.353Z,5.62
2023-03-16T05:39:04.277Z,5.62
2023-03-16T05:40:04.336Z,5.62
2023-03-16T05:41:06.036Z,11.25
2023-03-16T05:42:04.928Z,11.25
2023-03-16T05:43:04.931Z,11.25
2023-03-16T05:44:04.259Z,5.62
2023-03-16T05:45:04.989Z,5.62
2023-03-16T05:46:04.279Z,5.62
2023-03-16T05:47:04.922Z,5.62
2023-03-16T05:48:04.877Z,11.25
2023-03-16T05:49:04.884Z,11.25
2023-03-16T05:50:04.156Z,11.25
2023-03-16T05:51:04.172Z,11.25
2023-03-16T05:52:04.822Z,11.25
2023-03-16T05:53:04.819Z,11.25
2023-03-16T05:54:04.809Z,16.88
2023-03-16T05:55:04.156Z,16.88
2023-03-16T05:56:04.800Z,16.88
2023-03-16T05:57:04.802Z,16.88
2023-03-16T05:58:05.918Z,16.88
2023-03-16T05:59:04.758Z,22.50
2023-03-16T06:00:04.750Z,22.50
2023-03-16T06:01:04.743Z,22.50
2023-03-16T06:02:04.712Z,28.12
2023-03-16T06:03:04.752Z,28.12
2023-03-16T06:04:04.079Z,28.12
2023-03-16T06:05:04.769Z,33.75
2023-03-16T06:06:04.690Z,33.75
2023-03-16T06:07:04.019Z,33.75
2023-03-16T06:08:04.002Z,33.75
2023-03-16T06:09:04.649Z,33.75
2023-03-16T06:10:04.660Z,33.75
2023-03-16T06:11:04.640Z,33.75
2023-03-16T06:12:03.940Z,33.75
2023-03-16T06:13:03.914Z,39.38
2023-03-16T06:14:03.937Z,39.38
2023-03-16T06:15:04.763Z,39.38
2023-03-16T06:16:04.614Z,45.00
2023-03-16T06:17:03.891Z,45.00
2023-03-16T06:18:04.576Z,45.00
2023-03-16T06:19:04.560Z,45.00
2023-03-16T06:20:04.705Z,45.00
2023-03-16T06:21:03.906Z,50.62
2023-03-16T06:22:04.593Z,50.62
2023-03-16T06:23:04.542Z,50.62
2023-03-16T06:24:03.823Z,56.25
2023-03-16T06:25:03.802Z,56.25
2023-03-16T06:26:03.815Z,56.25
2023-03-16T06:27:03.821Z,56.25
2023-03-16T06:28:04.468Z,56.25
2023-03-16T06:29:05.706Z,56.25
2023-03-16T06:30:03.772Z,50.62
2023-03-16T06:31:04.436Z,50.62
2023-03-16T06:32:04.406Z,50.62
2023-03-16T06:33:04.461Z,50.62
2023-03-16T06:34:05.645Z,50.62
2023-03-16T06:35:04.382Z,50.62
2023-03-16T06:36:04.461Z,50.62
2023-03-16T06:37:04.349Z,56.25
2023-03-16T06:38:04.367Z,56.25
2023-03-16T06:39:03.676Z,56.25
2023-03-16T06:40:04.329Z,56.25
2023-03-16T06:41:04.317Z,56.25
2023-03-16T06:42:04.290Z,56.25
2023-03-16T06:43:03.606Z,56.25
2023-03-16T06:44:03.608Z,56.25
2023-03-16T06:45:04.276Z,56.25
2023-03-16T06:46:04.363Z,61.88
2023-03-16T06:47:03.649Z,61.88
2023-03-16T06:48:04.240Z,61.88
2023-03-16T06:49:04.237Z,61.88
2023-03-16T06:50:03.539Z,61.88
2023-03-16T06:51:04.214Z,61.88
2023-03-16T06:52:04.182Z,61.88
2023-03-16T06:53:04.190Z,67.50
2023-03-16T06:54:04.181Z,67.50
2023-03-16T06:55:03.485Z,73.12
2023-03-16T06:56:04.170Z,73.12
2023-03-16T06:57:03.496Z,67.50
2023-03-16T06:58:03.453Z,61.88
2023-03-16T06:59:04.144Z,61.88
2023-03-16T07:00:04.154Z,56.25
2023-03-16T07:01:04.178Z,56.25
2023-03-16T07:02:03.439Z,56.25
2023-03-16T07:03:04.093Z,61.88
2023-03-16T07:04:03.434Z,67.50
2023-03-16T07:05:04.068Z,73.12
2023-03-16T07:06:04.050Z,78.75
2023-03-16T07:07:04.030Z,90.00
2023-03-16T07:08:03.359Z,95.62
2023-03-16T07:09:04.033Z,95.62
2023-03-16T07:10:04.015Z,106.88
2023-03-16T07:11:04.003Z,112.50
2023-03-16T07:12:03.334Z,123.75
2023-03-16T07:13:03.298Z,140.62
2023-03-16T07:14:03.973Z,157.50
2023-03-16T07:15:03.265Z,174.38
2023-03-16T07:16:03.938Z,174.38
2023-03-16T07:17:03.976Z,180.00
2023-03-16T07:18:03.954Z,185.62
2023-03-16T07:19:03.241Z,191.25
2023-03-16T07:20:03.259Z,191.25
2023-03-16T07:21:03.880Z,196.88
2023-03-16T07:22:03.224Z,202.50
2023-03-16T07:23:03.204Z,208.12
2023-03-16T07:24:03.864Z,213.75
2023-03-16T07:25:03.170Z,219.38
2023-03-16T07:26:03.852Z,230.62
2023-03-16T07:27:03.813Z,241.88
2023-03-16T07:28:03.820Z,253.12
2023-03-16T07:29:03.801Z,270.00
2023-03-16T07:30:03.794Z,286.88
2023-03-16T07:31:04.439Z,303.75
2023-03-16T07:32:03.825Z,326.25
2023-03-16T07:33:03.780Z,354.38
2023-03-16T07:34:03.757Z,348.75
2023-03-16T07:35:03.745Z,348.75
2023-03-16T07:36:03.829Z,337.50
2023-03-16T07:37:03.706Z,320.62
2023-03-16T07:38:03.704Z,303.75
2023-03-16T07:39:03.724Z,286.88
2023-03-16T07:40:03.692Z,270.00
2023-03-16T07:41:03.706Z,258.75
2023-03-16T07:42:03.655Z,241.88
2023-03-16T07:43:03.675Z,225.00
2023-03-16T07:44:03.654Z,219.38
2023-03-16T07:45:02.942Z,202.50
2023-03-16T07:46:03.685Z,191.25
2023-03-16T07:47:03.610Z,185.62
2023-03-16T07:48:02.923Z,174.38
2023-03-16T07:49:03.581Z,168.75
2023-03-16T07:50:03.582Z,163.12
2023-03-16T07:51:03.573Z,157.50
2023-03-16T07:52:03.537Z,146.25
2023-03-16T07:53:02.854Z,140.62
2023-03-16T07:54:03.538Z,135.00
2023-03-16T07:55:02.862Z,129.38
2023-03-16T07:56:03.524Z,129.38
2023-03-16T07:57:03.485Z,129.38
2023-03-16T07:58:03.507Z,129.38
2023-03-16T07:59:03.473Z,129.38
2023-03-16T08:00:03.472Z,129.38
2023-03-16T08:01:03.454Z,129.38
2023-03-16T08:02:02.876Z,123.75
2023-03-16T08:03:03.441Z,123.75
2023-03-16T08:04:03.498Z,129.38
2023-03-16T08:05:03.414Z,129.38
2023-03-16T08:06:03.659Z,135.00
2023-03-16T08:07:03.384Z,135.00
2023-03-16T08:08:03.425Z,135.00
2023-03-16T08:09:02.719Z,140.62
2023-03-16T08:10:03.376Z,140.62
2023-03-16T08:11:02.678Z,140.62
2023-03-16T08:12:02.681Z,140.62
2023-03-16T08:13:03.383Z,146.25
2023-03-16T08:14:03.330Z,146.25
2023-03-16T08:15:03.305Z,146.25
2023-03-16T08:16:03.372Z,151.88
2023-03-16T08:17:03.269Z,151.88
2023-03-16T08:18:02.609Z,157.50
2023-03-16T08:19:03.261Z,163.12
2023-03-16T08:20:03.261Z,174.38
2023-03-16T08:21:02.591Z,180.00
2023-03-16T08:22:02.570Z,185.62
2023-03-16T08:23:03.221Z,185.62
2023-03-16T08:24:03.216Z,191.25
2023-03-16T08:25:03.215Z,191.25
2023-03-16T08:26:03.468Z,196.88
2023-03-16T08:27:03.168Z,191.25
2023-03-16T08:28:03.173Z,191.25
2023-03-16T08:29:02.683Z,191.25
2023-03-16T08:30:03.153Z,191.25
2023-03-16T08:31:03.205Z,191.25
2023-03-16T08:32:03.150Z,196.88
2023-03-16T08:33:03.205Z,208.12
2023-03-16T08:34:02.427Z,225.00
2023-03-16T08:35:03.133Z,241.88
2023-03-16T08:36:02.501Z,258.75
2023-03-16T08:37:02.445Z,264.38
2023-03-16T08:38:02.393Z,275.62
2023-03-16T08:39:07.200Z,281.25
2023-03-16T08:40:03.049Z,292.50
2023-03-16T08:41:02.357Z,303.75
2023-03-16T08:42:02.359Z,337.50
2023-03-16T08:43:02.374Z,365.62
2023-03-16T08:44:04.254Z,410.62
2023-03-16T08:45:02.330Z,433.12
2023-03-16T08:46:02.338Z,500.62
2023-03-16T08:47:02.946Z,540.00
2023-03-16T08:48:03.275Z,590.62
2023-03-16T08:49:02.974Z,630.00
2023-03-16T08:50:02.936Z,607.50
2023-03-16T08:51:02.924Z,562.50
2023-03-16T08:52:02.250Z,601.88
2023-03-16T08:53:03.177Z,601.88
2023-03-16T08:54:03.159Z,523.12
2023-03-16T08:55:04.174Z,461.25
2023-03-16T08:56:03.141Z,433.12
2023-03-16T08:57:03.116Z,399.38
2023-03-16T08:58:03.126Z,371.25
2023-03-16T08:59:02.843Z,348.75
2023-03-16T09:00:03.096Z,331.88
2023-03-16T09:01:02.832Z,320.62
2023-03-16T09:02:03.119Z,315.00
2023-03-16T09:03:03.091Z,315.00
2023-03-16T09:04:03.053Z,309.38
2023-03-16T09:05:02.766Z,303.75
2023-03-16T09:06:02.764Z,303.75
2023-03-16T09:07:09.056Z,303.75
2023-03-16T09:08:04.487Z,315.00
2023-03-16T09:09:02.729Z,303.75
2023-03-16T09:10:02.986Z,303.75
2023-03-16T09:11:02.719Z,303.75
2023-03-16T09:12:02.958Z,298.12
2023-03-16T09:13:02.955Z,292.50
2023-03-16T09:14:02.950Z,292.50
2023-03-16T09:15:02.660Z,298.12
2023-03-16T09:16:02.727Z,286.88
2023-03-16T09:17:02.638Z,281.25
2023-03-16T09:18:02.609Z,281.25
2023-03-16T09:19:02.887Z,281.25
2023-03-16T09:20:19.282Z,292.50
2023-03-16T09:21:03.603Z,309.38
2023-03-16T09:22:02.880Z,326.25
2023-03-16T09:23:02.562Z,348.75
2023-03-16T09:24:02.849Z,360.00
2023-03-16T09:25:02.808Z,376.88
2023-03-16T09:26:02.862Z,382.50
2023-03-16T09:27:02.616Z,382.50
2023-03-16T09:28:02.517Z,376.88
2023-03-16T09:29:02.511Z,371.25
2023-03-16T09:30:02.499Z,354.38
2023-03-16T09:31:01.855Z,348.75
2023-03-16T09:32:02.477Z,337.50
2023-03-16T09:33:02.568Z,326.25
2023-03-16T09:34:01.783Z,315.00
2023-03-16T09:35:02.461Z,303.75
2023-03-16T09:36:02.710Z,298.12
2023-03-16T09:37:02.696Z,275.62
2023-03-16T09:38:06.598Z,275.62
2023-03-16T09:39:01.726Z,258.75
2023-03-16T09:40:06.807Z,241.88
2023-03-16T09:41:04.132Z,230.62
2023-03-16T09:42:02.408Z,219.38
2023-03-16T09:43:02.341Z,213.75
2023-03-16T09:44:02.351Z,202.50
2023-03-16T09:45:02.397Z,202.50
2023-03-16T09:46:02.359Z,196.88
2023-03-16T09:47:02.325Z,191.25
2023-03-16T09:48:01.646Z,185.62
2023-03-16T09:49:01.607Z,185.62
2023-03-16T09:50:01.615Z,185.62
2023-03-16T09:51:02.367Z,185.62
2023-03-16T09:52:01.587Z,191.25
2023-03-16T09:53:02.235Z,196.88
2023-03-16T09:54:02.248Z,202.50
2023-03-16T09:55:01.539Z,208.12
2023-03-16T09:56:01.529Z,219.38
2023-03-16T09:57:02.215Z,225.00
2023-03-16T09:58:02.174Z,230.62
2023-03-16T09:59:02.189Z,230.62
2023-03-16T10:00:02.178Z,230.62
2023-03-16T10:01:02.214Z,236.25
2023-03-16T10:02:02.165Z,236.25
2023-03-16T10:03:01.468Z,236.25
2023-03-16T10:04:02.211Z,230.62
2023-03-16T10:05:02.128Z,230.62
2023-03-16T10:06:02.129Z,225.00
2023-03-16T10:07:01.427Z,230.62
2023-03-16T10:08:02.072Z,230.62
2023-03-16T10:09:02.070Z,230.62
2023-03-16T10:10:02.067Z,230.62
2023-03-16T10:11:02.056Z,225.00
2023-03-16T10:12:02.044Z,225.00
2023-03-16T10:13:02.030Z,225.00
2023-03-16T10:14:01.358Z,225.00
2023-03-16T10:15:01.478Z,225.00
2023-03-16T10:16:02.041Z,219.38
2023-03-16T10:17:02.008Z,219.38
2023-03-16T10:18:01.991Z,213.75
2023-03-16T10:19:01.290Z,208.12
2023-03-16T10:20:01.299Z,208.12
2023-03-16T10:21:01.267Z,208.12
2023-03-16T10:22:01.940Z,202.50
2023-03-16T10:23:01.903Z,202.50
2023-03-16T10:24:01.916Z,196.88
2023-03-16T10:25:01.916Z,196.88
2023-03-16T10:26:02.166Z,202.50
2023-03-16T10:27:01.230Z,196.88
2023-03-16T10:28:01.222Z,202.50
2023-03-16T10:29:01.227Z,191.25
2023-03-16T10:30:01.178Z,191.25
2023-03-16T10:31:01.841Z,180.00
2023-03-16T10:32:01.209Z,174.38
2023-03-16T10:33:01.191Z,174.38
2023-03-16T10:34:01.808Z,174.38
2023-03-16T10:35:01.791Z,180.00
2023-03-16T10:36:01.783Z,174.38
2023-03-16T10:37:01.779Z,168.75
2023-03-16T10:38:01.746Z,163.12
2023-03-16T10:39:01.745Z,163.12
2023-03-16T10:40:01.734Z,163.12
2023-03-16T10:41:01.733Z,163.12
2023-03-16T10:42:01.715Z,168.75
2023-03-16T10:43:01.683Z,174.38
2023-03-16T10:44:01.034Z,180.00
2023-03-16T10:45:02.999Z,191.25
2023-03-16T10:46:01.792Z,202.50
2023-03-16T10:47:01.760Z,208.12
2023-03-16T10:48:01.643Z,213.75
2023-03-16T10:49:01.747Z,213.75
2023-03-16T10:50:00.940Z,225.00
2023-03-16T10:51:01.623Z,230.62
2023-03-16T10:52:00.933Z,241.88
2023-03-16T10:53:01.588Z,264.38
2023-03-16T10:54:00.929Z,281.25
2023-03-16T10:55:01.587Z,286.88
2023-03-16T10:56:00.902Z,286.88
2023-03-16T10:57:01.553Z,281.25
2023-03-16T10:58:01.536Z,281.25
2023-03-16T10:59:00.849Z,286.88
2023-03-16T11:00:01.525Z,292.50
2023-03-16T11:01:01.565Z,303.75
2023-03-16T11:02:01.516Z,303.75
2023-03-16T11:03:01.491Z,309.38
2023-03-16T11:04:01.488Z,309.38
2023-03-16T11:05:00.835Z,309.38
2023-03-16T11:06:00.793Z,309.38
2023-03-16T11:07:01.453Z,309.38
2023-03-16T11:08:01.435Z,303.75
2023-03-16T11:09:01.440Z,298.12
2023-03-16T11:10:01.418Z,292.50
2023-03-16T11:11:01.414Z,281.25
2023-03-16T11:12:01.405Z,275.62
2023-03-16T11:13:02.483Z,264.38
2023-03-16T11:14:01.426Z,247.50
2023-03-16T11:15:01.369Z,241.88
2023-03-16T11:16:01.389Z,236.25
2023-03-16T11:17:00.678Z,236.25
2023-03-16T11:18:01.318Z,241.88
2023-03-16T11:19:01.322Z,247.50
2023-03-16T11:20:00.685Z,247.50
2023-03-16T11:21:01.318Z,258.75
2023-03-16T11:22:01.296Z,275.62
2023-03-16T11:23:01.264Z,286.88
2023-03-16T11:24:01.273Z,303.75
2023-03-16T11:25:01.254Z,320.62
2023-03-16T11:26:01.253Z,326.25
2023-03-16T11:27:01.236Z,331.88
2023-03-16T11:28:01.205Z,331.88
2023-03-16T11:29:01.224Z,331.88
2023-03-16T11:30:01.206Z,320.62
2023-03-16T11:31:01.315Z,298.12
2023-03-16T11:32:01.187Z,286.88
2023-03-16T11:33:00.741Z,281.25
2023-03-16T11:34:00.476Z,281.25
2023-03-16T11:35:01.168Z,275.62
2023-03-16T11:36:01.195Z,264.38
2023-03-16T11:37:01.131Z,258.75
2023-03-16T11:38:01.098Z,253.12
2023-03-16T11:39:00.443Z,253.12
2023-03-16T11:40:00.406Z,253.12
2023-03-16T11:41:01.089Z,247.50
2023-03-16T11:42:01.094Z,241.88
2023-03-16T11:43:00.390Z,241.88
2023-03-16T11:44:01.073Z,247.50
2023-03-16T11:45:00.345Z,247.50
2023-03-16T11:46:01.051Z,247.50
2023-03-16T11:47:01.022Z,247.50
2023-03-16T11:48:00.996Z,247.50
2023-03-16T11:49:00.314Z,247.50
2023-03-16T11:50:00.993Z,247.50
2023-03-16T11:51:00.286Z,253.12
2023-03-16T11:52:00.970Z,258.75
2023-03-16T11:53:00.940Z,270.00
2023-03-16T11:54:00.268Z,281.25
2023-03-16T11:55:00.939Z,286.88
2023-03-16T11:56:00.937Z,292.50
2023-03-16T11:57:00.246Z,292.50
2023-03-16T11:58:00.262Z,286.88
2023-03-16T11:59:00.886Z,281.25
2023-03-16T12:00:01.908Z,264.38
2023-03-16T12:01:00.863Z,247.50
2023-03-16T12:02:01.207Z,236.25
2023-03-16T12:03:00.865Z,219.38
2023-03-16T12:04:00.895Z,208.12
2023-03-16T12:05:00.816Z,202.50
2023-03-16T12:06:03.718Z,202.50
2023-03-16T12:07:02.574Z,213.75
2023-03-16T12:08:00.773Z,225.00
2023-03-16T12:09:00.111Z,225.00
2023-03-16T12:10:00.768Z,230.62
2023-03-16T12:11:00.763Z,241.88
2023-03-16T12:12:00.753Z,247.50
2023-03-16T12:13:00.714Z,247.50
2023-03-16T12:14:00.078Z,247.50
2023-03-16T12:15:00.714Z,258.75
2023-03-16T12:16:00.714Z,270.00
2023-03-16T12:17:02.446Z,275.62
2023-03-16T12:18:00.689Z,286.88
2023-03-16T12:19:00.664Z,303.75
2023-03-16T12:20:00.681Z,303.75
2023-03-16T12:21:00.655Z,309.38
2023-03-16T12:22:00.635Z,315.00
2023-03-16T12:23:00.604Z,309.38
2023-03-16T12:24:00.620Z,303.75
2023-03-16T12:25:00.632Z,298.12
2023-03-16T12:26:00.584Z,292.50
2023-03-16T12:26:59.900Z,292.50
2023-03-16T12:28:00.556Z,281.25
2023-03-16T12:28:59.872Z,275.62
2023-03-16T12:30:00.549Z,275.62
2023-03-16T12:31:00.545Z,275.62
2023-03-16T12:32:00.538Z,281.25
2023-03-16T12:33:00.619Z,281.25
2023-03-16T12:34:00.506Z,286.88
2023-03-16T12:35:00.497Z,298.12
2023-03-16T12:35:59.868Z,315.00
2023-03-16T12:37:00.496Z,326.25
2023-03-16T12:38:00.460Z,337.50
2023-03-16T12:39:00.466Z,343.12
2023-03-16T12:40:00.441Z,331.88
2023-03-16T12:40:59.739Z,331.88
2023-03-16T12:41:59.755Z,320.62
2023-03-16T12:43:00.670Z,292.50
2023-03-16T12:43:59.752Z,275.62
2023-03-16T12:45:00.397Z,264.38
2023-03-16T12:46:00.432Z,264.38
2023-03-16T12:46:59.683Z,258.75
2023-03-16T12:48:00.344Z,247.50
2023-03-16T12:49:00.357Z,247.50
2023-03-16T12:49:59.664Z,241.88
2023-03-16T12:50:59.642Z,247.50
2023-03-16T12:51:59.677Z,258.75